sensor_id;sensor_type;location;lat;lon;timestamp;temperature;humidity
14471;DHT22;7321;50.802;4.336;2024-03-29T00:02:06;10.70;99.90
14471;DHT22;7321;50.802;4.336;2024-03-29T00:04:35;10.70;99.90
14471;DHT22;7321;50.802;4.336;2024-03-29T00:07:06;10.70;99.90
14471;DHT22;7321;50.802;4.336;2024-03-29T00:09:32;10.70;99.90
14471;DHT22;7321;50.802;4.336;2024-03-29T00:12:04;10.80;99.90
14471;DHT22;7321;50.802;4.336;2024-03-29T00:14:34;10.80;99.90
14471;DHT22;7321;50.802;4.336;2024-03-29T00:17:20;10.70;99.90
14471;DHT22;7321;50.802;4.336;2024-03-29T00:19:49;10.80;99.90
14471;DHT22;7321;50.802;4.336;2024-03-29T00:25:37;10.60;99.90
14471;DHT22;7321;50.802;4.336;2024-03-29T00:28:10;10.60;99.90
14471;DHT22;7321;50.802;4.336;2024-03-29T00:30:48;10.70;99.90
14471;DHT22;7321;50.802;4.336;2024-03-29T00:33:20;10.70;99.90
14471;DHT22;7321;50.802;4.336;2024-03-29T00:35:53;10.80;99.90
14471;DHT22;7321;50.802;4.336;2024-03-29T00:38:31;10.80;99.90
14471;DHT22;7321;50.802;4.336;2024-03-29T00:43:56;10.90;99.90
14471;DHT22;7321;50.802;4.336;2024-03-29T00:46:25;10.90;99.90
14471;DHT22;7321;50.802;4.336;2024-03-29T00:49:11;10.90;99.90
14471;DHT22;7321;50.802;4.336;2024-03-29T00:51:49;11.00;99.90
14471;DHT22;7321;50.802;4.336;2024-03-29T00:54:17;10.90;99.90
14471;DHT22;7321;50.802;4.336;2024-03-29T00:56:46;10.90;99.90
14471;DHT22;7321;50.802;4.336;2024-03-29T00:59:18;11.00;99.90
14471;DHT22;7321;50.802;4.336;2024-03-29T01:01:48;11.10;99.90
14471;DHT22;7321;50.802;4.336;2024-03-29T01:04:14;11.10;99.90
14471;DHT22;7321;50.802;4.336;2024-03-29T01:06:40;11.10;99.90
14471;DHT22;7321;50.802;4.336;2024-03-29T01:09:06;11.10;99.90
14471;DHT22;7321;50.802;4.336;2024-03-29T01:11:35;11.10;99.90
14471;DHT22;7321;50.802;4.336;2024-03-29T01:14:04;11.10;99.90
14471;DHT22;7321;50.802;4.336;2024-03-29T01:16:31;11.10;99.90
14471;DHT22;7321;50.802;4.336;2024-03-29T01:19:00;11.10;99.90
14471;DHT22;7321;50.802;4.336;2024-03-29T01:21:26;11.10;99.90
14471;DHT22;7321;50.802;4.336;2024-03-29T01:23:52;11.10;99.90
14471;DHT22;7321;50.802;4.336;2024-03-29T01:26:21;11.10;99.90
14471;DHT22;7321;50.802;4.336;2024-03-29T01:28:49;10.90;99.90
14471;DHT22;7321;50.802;4.336;2024-03-29T01:31:15;10.90;99.90
14471;DHT22;7321;50.802;4.336;2024-03-29T01:33:44;10.90;99.90
14471;DHT22;7321;50.802;4.336;2024-03-29T01:36:13;10.80;99.90
14471;DHT22;7321;50.802;4.336;2024-03-29T01:38:39;10.80;99.90
14471;DHT22;7321;50.802;4.336;2024-03-29T01:41:05;10.70;99.90
14471;DHT22;7321;50.802;4.336;2024-03-29T01:43:30;10.70;99.90
14471;DHT22;7321;50.802;4.336;2024-03-29T01:45:56;10.60;99.90
14471;DHT22;7321;50.802;4.336;2024-03-29T01:48:23;10.50;99.90
14471;DHT22;7321;50.802;4.336;2024-03-29T01:50:51;10.50;99.90
14471;DHT22;7321;50.802;4.336;2024-03-29T01:53:18;10.50;99.90
14471;DHT22;7321;50.802;4.336;2024-03-29T01:55:45;10.30;99.90
14471;DHT22;7321;50.802;4.336;2024-03-29T01:58:11;10.20;99.90
14471;DHT22;7321;50.802;4.336;2024-03-29T02:00:48;10.10;99.90
14471;DHT22;7321;50.802;4.336;2024-03-29T02:03:16;10.20;99.90
14471;DHT22;7321;50.802;4.336;2024-03-29T02:05:43;10.10;99.90
14471;DHT22;7321;50.802;4.336;2024-03-29T02:08:10;10.00;99.90
14471;DHT22;7321;50.802;4.336;2024-03-29T02:10:37;9.90;99.90
14471;DHT22;7321;50.802;4.336;2024-03-29T02:13:03;9.80;99.90
14471;DHT22;7321;50.802;4.336;2024-03-29T02:15:30;9.70;99.90
14471;DHT22;7321;50.802;4.336;2024-03-29T02:17:57;9.70;99.90
14471;DHT22;7321;50.802;4.336;2024-03-29T02:20:23;9.70;99.90
14471;DHT22;7321;50.802;4.336;2024-03-29T02:23:00;9.60;99.90
14471;DHT22;7321;50.802;4.336;2024-03-29T02:25:28;9.60;99.90
14471;DHT22;7321;50.802;4.336;2024-03-29T02:27:54;9.60;99.90
14471;DHT22;7321;50.802;4.336;2024-03-29T02:30:21;9.50;99.90
14471;DHT22;7321;50.802;4.336;2024-03-29T02:32:47;9.50;99.90
14471;DHT22;7321;50.802;4.336;2024-03-29T02:35:13;9.50;99.90
14471;DHT22;7321;50.802;4.336;2024-03-29T02:37:40;9.60;99.90
14471;DHT22;7321;50.802;4.336;2024-03-29T02:40:06;9.60;99.90
14471;DHT22;7321;50.802;4.336;2024-03-29T02:42:34;9.80;99.90
14471;DHT22;7321;50.802;4.336;2024-03-29T02:45:02;9.80;99.90
14471;DHT22;7321;50.802;4.336;2024-03-29T02:47:28;9.70;99.90
14471;DHT22;7321;50.802;4.336;2024-03-29T02:49:54;9.60;99.90
14471;DHT22;7321;50.802;4.336;2024-03-29T02:52:20;9.60;99.90
14471;DHT22;7321;50.802;4.336;2024-03-29T02:54:45;9.60;99.90
14471;DHT22;7321;50.802;4.336;2024-03-29T02:57:11;9.50;99.90
14471;DHT22;7321;50.802;4.336;2024-03-29T02:59:39;9.50;99.90
14471;DHT22;7321;50.802;4.336;2024-03-29T03:02:05;9.50;99.90
14471;DHT22;7321;50.802;4.336;2024-03-29T03:04:34;9.60;99.90
14471;DHT22;7321;50.802;4.336;2024-03-29T03:07:00;9.50;99.90
14471;DHT22;7321;50.802;4.336;2024-03-29T03:09:44;9.40;99.90
14471;DHT22;7321;50.802;4.336;2024-03-29T03:12:31;9.30;99.90
14471;DHT22;7321;50.802;4.336;2024-03-29T03:14:58;9.10;99.90
14471;DHT22;7321;50.802;4.336;2024-03-29T03:17:28;9.00;99.90
14471;DHT22;7321;50.802;4.336;2024-03-29T03:19:54;9.00;99.90
14471;DHT22;7321;50.802;4.336;2024-03-29T03:22:20;9.00;99.90
14471;DHT22;7321;50.802;4.336;2024-03-29T03:24:46;9.00;99.90
14471;DHT22;7321;50.802;4.336;2024-03-29T03:27:12;9.00;99.90
14471;DHT22;7321;50.802;4.336;2024-03-29T03:29:39;9.00;99.90
14471;DHT22;7321;50.802;4.336;2024-03-29T03:32:06;9.00;99.90
14471;DHT22;7321;50.802;4.336;2024-03-29T03:34:32;8.90;99.90
14471;DHT22;7321;50.802;4.336;2024-03-29T03:36:58;8.80;99.90
14471;DHT22;7321;50.802;4.336;2024-03-29T03:39:24;8.70;99.90
14471;DHT22;7321;50.802;4.336;2024-03-29T03:41:50;8.70;99.90
14471;DHT22;7321;50.802;4.336;2024-03-29T03:44:16;8.90;99.90
14471;DHT22;7321;50.802;4.336;2024-03-29T03:46:42;8.90;99.90
14471;DHT22;7321;50.802;4.336;2024-03-29T03:49:08;8.90;99.90
14471;DHT22;7321;50.802;4.336;2024-03-29T03:51:34;8.80;99.90
14471;DHT22;7321;50.802;4.336;2024-03-29T03:54:00;8.90;99.90
14471;DHT22;7321;50.802;4.336;2024-03-29T03:56:26;8.80;99.90
14471;DHT22;7321;50.802;4.336;2024-03-29T03:58:52;8.90;99.90
14471;DHT22;7321;50.802;4.336;2024-03-29T04:01:18;9.00;99.90
14471;DHT22;7321;50.802;4.336;2024-03-29T04:03:44;9.00;99.90
14471;DHT22;7321;50.802;4.336;2024-03-29T04:06:09;9.00;99.90
14471;DHT22;7321;50.802;4.336;2024-03-29T04:08:35;8.90;99.90
14471;DHT22;7321;50.802;4.336;2024-03-29T04:11:04;8.90;99.90
14471;DHT22;7321;50.802;4.336;2024-03-29T04:13:30;8.80;99.90
14471;DHT22;7321;50.802;4.336;2024-03-29T04:16:03;8.80;99.90
14471;DHT22;7321;50.802;4.336;2024-03-29T04:18:29;8.70;99.90
14471;DHT22;7321;50.802;4.336;2024-03-29T04:20:59;8.60;99.90
14471;DHT22;7321;50.802;4.336;2024-03-29T04:23:26;8.50;99.90
14471;DHT22;7321;50.802;4.336;2024-03-29T04:25:58;8.30;99.90
14471;DHT22;7321;50.802;4.336;2024-03-29T04:28:25;8.30;99.90
14471;DHT22;7321;50.802;4.336;2024-03-29T04:30:55;8.30;99.90
14471;DHT22;7321;50.802;4.336;2024-03-29T04:33:21;8.40;99.90
14471;DHT22;7321;50.802;4.336;2024-03-29T04:36:14;8.40;99.90
14471;DHT22;7321;50.802;4.336;2024-03-29T04:38:50;8.40;99.90
14471;DHT22;7321;50.802;4.336;2024-03-29T04:41:16;8.30;99.90
14471;DHT22;7321;50.802;4.336;2024-03-29T04:43:43;8.30;99.90
14471;DHT22;7321;50.802;4.336;2024-03-29T04:46:12;8.50;99.90
14471;DHT22;7321;50.802;4.336;2024-03-29T04:48:38;8.60;99.90
14471;DHT22;7321;50.802;4.336;2024-03-29T04:51:05;8.70;99.90
14471;DHT22;7321;50.802;4.336;2024-03-29T04:53:31;8.70;99.90
14471;DHT22;7321;50.802;4.336;2024-03-29T04:56:16;8.60;99.90
14471;DHT22;7321;50.802;4.336;2024-03-29T04:58:47;8.60;99.90
14471;DHT22;7321;50.802;4.336;2024-03-29T05:01:13;8.60;99.90
14471;DHT22;7321;50.802;4.336;2024-03-29T05:03:39;8.50;99.90
14471;DHT22;7321;50.802;4.336;2024-03-29T05:06:05;8.70;99.90
14471;DHT22;7321;50.802;4.336;2024-03-29T05:08:30;8.60;99.90
14471;DHT22;7321;50.802;4.336;2024-03-29T05:10:56;8.60;99.90
14471;DHT22;7321;50.802;4.336;2024-03-29T05:13:22;8.70;99.90
14471;DHT22;7321;50.802;4.336;2024-03-29T05:15:48;8.90;99.90
14471;DHT22;7321;50.802;4.336;2024-03-29T05:18:14;9.10;99.90
14471;DHT22;7321;50.802;4.336;2024-03-29T05:20:40;9.10;99.90
14471;DHT22;7321;50.802;4.336;2024-03-29T05:23:07;9.10;99.90
14471;DHT22;7321;50.802;4.336;2024-03-29T05:25:33;9.20;99.90
14471;DHT22;7321;50.802;4.336;2024-03-29T05:27:59;9.20;99.90
14471;DHT22;7321;50.802;4.336;2024-03-29T05:30:25;9.20;99.90
14471;DHT22;7321;50.802;4.336;2024-03-29T05:32:52;9.20;99.90
14471;DHT22;7321;50.802;4.336;2024-03-29T05:35:18;9.30;99.90
14471;DHT22;7321;50.802;4.336;2024-03-29T05:37:44;9.20;99.90
14471;DHT22;7321;50.802;4.336;2024-03-29T05:40:15;9.20;99.90
14471;DHT22;7321;50.802;4.336;2024-03-29T05:42:41;9.30;99.90
14471;DHT22;7321;50.802;4.336;2024-03-29T05:45:28;9.40;99.90
14471;DHT22;7321;50.802;4.336;2024-03-29T05:47:56;9.50;99.90
14471;DHT22;7321;50.802;4.336;2024-03-29T05:50:23;9.40;99.90
14471;DHT22;7321;50.802;4.336;2024-03-29T05:52:50;9.40;99.90
14471;DHT22;7321;50.802;4.336;2024-03-29T05:55:16;9.60;99.90
14471;DHT22;7321;50.802;4.336;2024-03-29T05:57:42;9.60;99.90
14471;DHT22;7321;50.802;4.336;2024-03-29T06:00:12;9.80;99.90
14471;DHT22;7321;50.802;4.336;2024-03-29T06:02:39;9.90;99.90
14471;DHT22;7321;50.802;4.336;2024-03-29T06:05:06;9.90;99.90
14471;DHT22;7321;50.802;4.336;2024-03-29T06:07:32;9.90;99.90
14471;DHT22;7321;50.802;4.336;2024-03-29T06:10:10;10.00;99.90
14471;DHT22;7321;50.802;4.336;2024-03-29T06:12:57;10.00;99.90
14471;DHT22;7321;50.802;4.336;2024-03-29T06:15:32;9.90;99.90
14471;DHT22;7321;50.802;4.336;2024-03-29T06:18:17;9.90;99.90
14471;DHT22;7321;50.802;4.336;2024-03-29T06:20:47;10.00;99.90
14471;DHT22;7321;50.802;4.336;2024-03-29T06:23:13;10.00;99.90
14471;DHT22;7321;50.802;4.336;2024-03-29T06:25:40;9.80;99.90
14471;DHT22;7321;50.802;4.336;2024-03-29T06:28:06;9.90;99.90
14471;DHT22;7321;50.802;4.336;2024-03-29T06:30:31;9.90;99.90
14471;DHT22;7321;50.802;4.336;2024-03-29T06:32:57;10.00;99.90
14471;DHT22;7321;50.802;4.336;2024-03-29T06:35:25;10.00;99.90
14471;DHT22;7321;50.802;4.336;2024-03-29T06:37:56;10.10;99.90
14471;DHT22;7321;50.802;4.336;2024-03-29T06:40:22;10.10;99.90
14471;DHT22;7321;50.802;4.336;2024-03-29T06:42:57;10.10;99.90
14471;DHT22;7321;50.802;4.336;2024-03-29T06:45:25;10.10;99.90
14471;DHT22;7321;50.802;4.336;2024-03-29T06:47:51;10.40;99.90
14471;DHT22;7321;50.802;4.336;2024-03-29T06:50:18;10.50;99.90
14471;DHT22;7321;50.802;4.336;2024-03-29T06:52:44;10.70;99.90
14471;DHT22;7321;50.802;4.336;2024-03-29T06:55:10;10.80;99.90
14471;DHT22;7321;50.802;4.336;2024-03-29T06:57:36;10.80;99.90
14471;DHT22;7321;50.802;4.336;2024-03-29T07:00:02;10.90;99.90
14471;DHT22;7321;50.802;4.336;2024-03-29T07:02:28;10.90;99.90
14471;DHT22;7321;50.802;4.336;2024-03-29T07:04:54;10.80;99.90
14471;DHT22;7321;50.802;4.336;2024-03-29T07:07:20;10.50;99.90
14471;DHT22;7321;50.802;4.336;2024-03-29T07:09:46;10.40;99.90
14471;DHT22;7321;50.802;4.336;2024-03-29T07:12:12;10.60;99.90
14471;DHT22;7321;50.802;4.336;2024-03-29T07:14:38;10.60;99.90
14471;DHT22;7321;50.802;4.336;2024-03-29T07:17:04;10.30;99.90
14471;DHT22;7321;50.802;4.336;2024-03-29T07:19:29;10.40;99.90
14471;DHT22;7321;50.802;4.336;2024-03-29T07:21:55;10.30;99.90
14471;DHT22;7321;50.802;4.336;2024-03-29T07:24:21;10.30;99.90
14471;DHT22;7321;50.802;4.336;2024-03-29T07:26:47;10.30;99.90
14471;DHT22;7321;50.802;4.336;2024-03-29T07:29:13;10.20;99.90
14471;DHT22;7321;50.802;4.336;2024-03-29T07:31:39;10.30;99.90
14471;DHT22;7321;50.802;4.336;2024-03-29T07:34:05;10.30;99.90
14471;DHT22;7321;50.802;4.336;2024-03-29T07:36:31;10.30;99.90
14471;DHT22;7321;50.802;4.336;2024-03-29T07:39:01;10.30;99.90
14471;DHT22;7321;50.802;4.336;2024-03-29T07:41:27;10.50;99.90
14471;DHT22;7321;50.802;4.336;2024-03-29T07:43:54;10.50;99.90
14471;DHT22;7321;50.802;4.336;2024-03-29T07:46:23;10.70;99.90
14471;DHT22;7321;50.802;4.336;2024-03-29T07:48:52;10.80;99.90
14471;DHT22;7321;50.802;4.336;2024-03-29T07:51:18;10.90;99.90
14471;DHT22;7321;50.802;4.336;2024-03-29T07:53:44;10.80;99.90
14471;DHT22;7321;50.802;4.336;2024-03-29T07:56:10;10.70;99.90
14471;DHT22;7321;50.802;4.336;2024-03-29T07:58:36;10.90;99.90
14471;DHT22;7321;50.802;4.336;2024-03-29T08:01:18;11.00;99.90
14471;DHT22;7321;50.802;4.336;2024-03-29T08:03:44;11.00;99.90
14471;DHT22;7321;50.802;4.336;2024-03-29T08:06:13;11.10;99.90
14471;DHT22;7321;50.802;4.336;2024-03-29T08:08:39;11.30;99.90
14471;DHT22;7321;50.802;4.336;2024-03-29T08:11:11;11.30;99.90
14471;DHT22;7321;50.802;4.336;2024-03-29T08:13:40;11.10;99.90
14471;DHT22;7321;50.802;4.336;2024-03-29T08:16:07;11.20;99.90
14471;DHT22;7321;50.802;4.336;2024-03-29T08:18:33;11.10;99.90
14471;DHT22;7321;50.802;4.336;2024-03-29T08:21:04;11.10;99.90
14471;DHT22;7321;50.802;4.336;2024-03-29T08:23:36;11.00;99.90
14471;DHT22;7321;50.802;4.336;2024-03-29T08:26:04;11.10;99.90
14471;DHT22;7321;50.802;4.336;2024-03-29T08:28:30;11.30;99.90
14471;DHT22;7321;50.802;4.336;2024-03-29T08:33:28;11.70;99.90
14471;DHT22;7321;50.802;4.336;2024-03-29T08:35:56;11.80;99.90
14471;DHT22;7321;50.802;4.336;2024-03-29T08:38:22;11.90;99.90
14471;DHT22;7321;50.802;4.336;2024-03-29T08:40:51;11.90;99.90
14471;DHT22;7321;50.802;4.336;2024-03-29T08:43:17;11.80;99.90
14471;DHT22;7321;50.802;4.336;2024-03-29T08:45:46;11.80;99.90
14471;DHT22;7321;50.802;4.336;2024-03-29T08:48:12;11.80;99.90
14471;DHT22;7321;50.802;4.336;2024-03-29T08:50:41;11.90;99.90
14471;DHT22;7321;50.802;4.336;2024-03-29T08:53:07;12.00;99.90
14471;DHT22;7321;50.802;4.336;2024-03-29T08:55:36;12.20;99.90
14471;DHT22;7321;50.802;4.336;2024-03-29T08:58:03;12.10;99.90
14471;DHT22;7321;50.802;4.336;2024-03-29T09:00:30;12.00;99.90
14471;DHT22;7321;50.802;4.336;2024-03-29T09:02:57;12.00;99.90
14471;DHT22;7321;50.802;4.336;2024-03-29T09:05:29;12.10;99.90
14471;DHT22;7321;50.802;4.336;2024-03-29T09:07:55;12.30;99.90
14471;DHT22;7321;50.802;4.336;2024-03-29T09:10:25;12.30;99.90
14471;DHT22;7321;50.802;4.336;2024-03-29T09:12:53;12.40;99.90
14471;DHT22;7321;50.802;4.336;2024-03-29T09:15:19;12.50;99.90
14471;DHT22;7321;50.802;4.336;2024-03-29T09:17:45;12.50;99.90
14471;DHT22;7321;50.802;4.336;2024-03-29T09:20:12;12.50;99.90
14471;DHT22;7321;50.802;4.336;2024-03-29T09:22:41;12.60;99.90
14471;DHT22;7321;50.802;4.336;2024-03-29T09:25:07;12.70;99.90
14471;DHT22;7321;50.802;4.336;2024-03-29T09:27:39;12.60;99.90
14471;DHT22;7321;50.802;4.336;2024-03-29T09:30:11;12.60;99.90
14471;DHT22;7321;50.802;4.336;2024-03-29T09:32:41;12.70;99.90
14471;DHT22;7321;50.802;4.336;2024-03-29T09:35:07;12.90;99.90
14471;DHT22;7321;50.802;4.336;2024-03-29T09:37:33;12.90;99.90
14471;DHT22;7321;50.802;4.336;2024-03-29T09:40:05;12.90;99.90
14471;DHT22;7321;50.802;4.336;2024-03-29T09:42:34;12.90;99.90
14471;DHT22;7321;50.802;4.336;2024-03-29T09:45:05;13.20;99.90
14471;DHT22;7321;50.802;4.336;2024-03-29T09:47:35;13.20;99.90
14471;DHT22;7321;50.802;4.336;2024-03-29T09:50:06;13.30;99.90
14471;DHT22;7321;50.802;4.336;2024-03-29T09:52:33;13.20;99.90
14471;DHT22;7321;50.802;4.336;2024-03-29T09:55:01;13.10;99.90
14471;DHT22;7321;50.802;4.336;2024-03-29T09:57:29;12.90;99.90
14471;DHT22;7321;50.802;4.336;2024-03-29T09:59:57;13.00;99.90
14471;DHT22;7321;50.802;4.336;2024-03-29T10:02:31;13.10;99.90
14471;DHT22;7321;50.802;4.336;2024-03-29T10:04:57;13.20;99.90
14471;DHT22;7321;50.802;4.336;2024-03-29T10:07:24;13.50;99.90
14471;DHT22;7321;50.802;4.336;2024-03-29T10:09:51;13.50;99.90
14471;DHT22;7321;50.802;4.336;2024-03-29T10:12:18;13.60;99.90
14471;DHT22;7321;50.802;4.336;2024-03-29T10:14:48;13.50;99.90
14471;DHT22;7321;50.802;4.336;2024-03-29T10:17:32;13.50;99.90
14471;DHT22;7321;50.802;4.336;2024-03-29T10:20:02;13.60;99.90
14471;DHT22;7321;50.802;4.336;2024-03-29T10:22:40;13.80;99.90
14471;DHT22;7321;50.802;4.336;2024-03-29T10:25:06;14.00;99.90
14471;DHT22;7321;50.802;4.336;2024-03-29T10:27:32;14.10;99.90
14471;DHT22;7321;50.802;4.336;2024-03-29T10:29:59;14.20;99.90
14471;DHT22;7321;50.802;4.336;2024-03-29T10:32:25;14.10;99.90
14471;DHT22;7321;50.802;4.336;2024-03-29T10:34:51;13.90;99.90
14471;DHT22;7321;50.802;4.336;2024-03-29T10:37:18;13.90;99.90
14471;DHT22;7321;50.802;4.336;2024-03-29T10:39:52;14.00;99.90
14471;DHT22;7321;50.802;4.336;2024-03-29T10:42:30;14.00;99.90
14471;DHT22;7321;50.802;4.336;2024-03-29T10:44:59;13.90;99.90
14471;DHT22;7321;50.802;4.336;2024-03-29T10:47:26;14.00;99.90
14471;DHT22;7321;50.802;4.336;2024-03-29T10:49:53;14.00;99.90
14471;DHT22;7321;50.802;4.336;2024-03-29T10:52:21;14.10;99.90
14471;DHT22;7321;50.802;4.336;2024-03-29T10:54:48;14.10;99.90
14471;DHT22;7321;50.802;4.336;2024-03-29T10:57:27;14.30;99.90
14471;DHT22;7321;50.802;4.336;2024-03-29T11:02:49;14.60;99.90
14471;DHT22;7321;50.802;4.336;2024-03-29T11:05:18;14.50;99.90
14471;DHT22;7321;50.802;4.336;2024-03-29T11:07:45;14.30;99.90
14471;DHT22;7321;50.802;4.336;2024-03-29T11:10:40;14.60;99.90
14471;DHT22;7321;50.802;4.336;2024-03-29T11:15:54;14.50;99.90
14471;DHT22;7321;50.802;4.336;2024-03-29T11:18:21;14.40;99.90
14471;DHT22;7321;50.802;4.336;2024-03-29T11:20:50;14.60;99.90
14471;DHT22;7321;50.802;4.336;2024-03-29T11:23:21;14.70;99.90
14471;DHT22;7321;50.802;4.336;2024-03-29T11:25:55;14.90;99.90
14471;DHT22;7321;50.802;4.336;2024-03-29T11:28:25;15.20;99.90
14471;DHT22;7321;50.802;4.336;2024-03-29T11:30:53;14.90;99.90
14471;DHT22;7321;50.802;4.336;2024-03-29T11:36:19;14.80;99.90
14471;DHT22;7321;50.802;4.336;2024-03-29T11:38:47;14.70;99.90
14471;DHT22;7321;50.802;4.336;2024-03-29T11:43:40;15.10;99.90
14471;DHT22;7321;50.802;4.336;2024-03-29T11:46:09;15.30;99.90
14471;DHT22;7321;50.802;4.336;2024-03-29T11:48:36;15.40;99.90
14471;DHT22;7321;50.802;4.336;2024-03-29T11:51:03;15.60;99.90
14471;DHT22;7321;50.802;4.336;2024-03-29T11:53:30;15.90;99.90
14471;DHT22;7321;50.802;4.336;2024-03-29T11:56:01;15.90;99.90
14471;DHT22;7321;50.802;4.336;2024-03-29T11:58:28;15.60;99.90
14471;DHT22;7321;50.802;4.336;2024-03-29T12:00:56;15.40;99.90
14471;DHT22;7321;50.802;4.336;2024-03-29T12:03:24;15.50;99.90
14471;DHT22;7321;50.802;4.336;2024-03-29T12:05:55;15.50;99.90
14471;DHT22;7321;50.802;4.336;2024-03-29T12:08:25;15.40;99.90
14471;DHT22;7321;50.802;4.336;2024-03-29T12:10:52;15.30;99.90
14471;DHT22;7321;50.802;4.336;2024-03-29T12:13:18;15.40;99.90
14471;DHT22;7321;50.802;4.336;2024-03-29T12:15:44;15.50;99.90
14471;DHT22;7321;50.802;4.336;2024-03-29T12:18:11;15.60;99.90
14471;DHT22;7321;50.802;4.336;2024-03-29T12:20:39;15.70;99.90
14471;DHT22;7321;50.802;4.336;2024-03-29T12:23:06;15.70;99.90
14471;DHT22;7321;50.802;4.336;2024-03-29T12:25:33;15.90;99.90
14471;DHT22;7321;50.802;4.336;2024-03-29T12:28:00;16.00;99.90
14471;DHT22;7321;50.802;4.336;2024-03-29T12:30:26;16.10;99.90
14471;DHT22;7321;50.802;4.336;2024-03-29T12:33:06;16.10;99.90
14471;DHT22;7321;50.802;4.336;2024-03-29T12:35:33;16.00;99.90
14471;DHT22;7321;50.802;4.336;2024-03-29T12:38:01;16.00;99.90
14471;DHT22;7321;50.802;4.336;2024-03-29T12:40:30;16.10;99.90
14471;DHT22;7321;50.802;4.336;2024-03-29T12:43:02;16.10;99.90
14471;DHT22;7321;50.802;4.336;2024-03-29T12:45:29;16.30;99.90
14471;DHT22;7321;50.802;4.336;2024-03-29T12:47:55;16.30;99.90
14471;DHT22;7321;50.802;4.336;2024-03-29T12:50:26;16.40;99.90
14471;DHT22;7321;50.802;4.336;2024-03-29T12:52:59;16.50;99.90
14471;DHT22;7321;50.802;4.336;2024-03-29T12:55:28;16.20;99.90
14471;DHT22;7321;50.802;4.336;2024-03-29T12:57:57;15.90;99.90
14471;DHT22;7321;50.802;4.336;2024-03-29T13:00:25;15.90;99.90
14471;DHT22;7321;50.802;4.336;2024-03-29T13:02:51;16.20;99.90
14471;DHT22;7321;50.802;4.336;2024-03-29T13:05:18;16.40;99.90
14471;DHT22;7321;50.802;4.336;2024-03-29T13:07:43;16.60;99.90
14471;DHT22;7321;50.802;4.336;2024-03-29T13:10:11;16.50;99.90
14471;DHT22;7321;50.802;4.336;2024-03-29T13:12:46;16.40;99.90
14471;DHT22;7321;50.802;4.336;2024-03-29T13:15:16;16.30;99.90
14471;DHT22;7321;50.802;4.336;2024-03-29T13:17:42;16.20;99.90
14471;DHT22;7321;50.802;4.336;2024-03-29T13:20:12;16.30;99.90
14471;DHT22;7321;50.802;4.336;2024-03-29T13:22:51;16.40;99.90
14471;DHT22;7321;50.802;4.336;2024-03-29T13:25:29;16.30;99.90
14471;DHT22;7321;50.802;4.336;2024-03-29T13:28:01;16.30;99.90
14471;DHT22;7321;50.802;4.336;2024-03-29T13:30:32;16.40;99.90
14471;DHT22;7321;50.802;4.336;2024-03-29T13:33:08;16.40;99.90
14471;DHT22;7321;50.802;4.336;2024-03-29T13:35:37;16.40;99.90
14471;DHT22;7321;50.802;4.336;2024-03-29T13:38:04;16.30;99.90
14471;DHT22;7321;50.802;4.336;2024-03-29T13:40:30;16.20;99.90
14471;DHT22;7321;50.802;4.336;2024-03-29T13:42:58;16.30;99.90
14471;DHT22;7321;50.802;4.336;2024-03-29T13:45:24;16.30;99.90
14471;DHT22;7321;50.802;4.336;2024-03-29T13:47:53;16.30;99.90
14471;DHT22;7321;50.802;4.336;2024-03-29T13:50:19;16.20;99.90
14471;DHT22;7321;50.802;4.336;2024-03-29T13:52:51;16.10;99.90
14471;DHT22;7321;50.802;4.336;2024-03-29T13:55:32;16.10;99.90
14471;DHT22;7321;50.802;4.336;2024-03-29T13:57:58;16.20;99.90
14471;DHT22;7321;50.802;4.336;2024-03-29T14:09:46;16.70;99.90
14471;DHT22;7321;50.802;4.336;2024-03-29T14:12:22;16.50;99.90
14471;DHT22;7321;50.802;4.336;2024-03-29T14:14:51;16.30;99.90
14471;DHT22;7321;50.802;4.336;2024-03-29T14:17:32;16.40;99.90
14471;DHT22;7321;50.802;4.336;2024-03-29T14:20:17;16.60;99.90
14471;DHT22;7321;50.802;4.336;2024-03-29T14:25:19;16.30;99.90
14471;DHT22;7321;50.802;4.336;2024-03-29T14:27:50;15.90;99.90
14471;DHT22;7321;50.802;4.336;2024-03-29T14:30:34;15.90;99.90
14471;DHT22;7321;50.802;4.336;2024-03-29T14:33:05;15.90;99.90
14471;DHT22;7321;50.802;4.336;2024-03-29T14:35:43;15.80;99.90
14471;DHT22;7321;50.802;4.336;2024-03-29T14:38:08;16.00;99.90
14471;DHT22;7321;50.802;4.336;2024-03-29T14:40:35;16.00;99.90
14471;DHT22;7321;50.802;4.336;2024-03-29T14:43:06;16.00;99.90
14471;DHT22;7321;50.802;4.336;2024-03-29T14:45:35;16.10;99.90
14471;DHT22;7321;50.802;4.336;2024-03-29T14:48:04;16.10;99.90
14471;DHT22;7321;50.802;4.336;2024-03-29T14:50:30;16.10;99.90
14471;DHT22;7321;50.802;4.336;2024-03-29T14:52:59;16.30;99.90
14471;DHT22;7321;50.802;4.336;2024-03-29T14:55:27;16.30;99.90
14471;DHT22;7321;50.802;4.336;2024-03-29T14:57:59;16.60;99.90
14471;DHT22;7321;50.802;4.336;2024-03-29T15:00:24;16.80;99.90
14471;DHT22;7321;50.802;4.336;2024-03-29T15:02:51;16.80;99.90
14471;DHT22;7321;50.802;4.336;2024-03-29T15:05:18;16.60;99.90
14471;DHT22;7321;50.802;4.336;2024-03-29T15:07:44;16.70;99.90
14471;DHT22;7321;50.802;4.336;2024-03-29T15:10:10;16.40;99.90
14471;DHT22;7321;50.802;4.336;2024-03-29T15:12:42;16.40;99.90
14471;DHT22;7321;50.802;4.336;2024-03-29T15:15:08;16.40;99.90
14471;DHT22;7321;50.802;4.336;2024-03-29T15:17:34;16.40;99.90
14471;DHT22;7321;50.802;4.336;2024-03-29T15:20:03;16.40;99.90
14471;DHT22;7321;50.802;4.336;2024-03-29T15:22:31;16.30;99.90
14471;DHT22;7321;50.802;4.336;2024-03-29T15:24:58;16.30;99.90
14471;DHT22;7321;50.802;4.336;2024-03-29T15:27:24;16.30;99.90
14471;DHT22;7321;50.802;4.336;2024-03-29T15:30:09;16.40;99.90
14471;DHT22;7321;50.802;4.336;2024-03-29T15:32:38;16.40;99.90
14471;DHT22;7321;50.802;4.336;2024-03-29T15:35:04;16.40;99.90
14471;DHT22;7321;50.802;4.336;2024-03-29T15:37:30;16.20;99.90
14471;DHT22;7321;50.802;4.336;2024-03-29T15:40:00;16.10;99.90
14471;DHT22;7321;50.802;4.336;2024-03-29T15:42:27;16.20;99.90
14471;DHT22;7321;50.802;4.336;2024-03-29T15:44:56;16.20;99.90
14471;DHT22;7321;50.802;4.336;2024-03-29T15:47:25;16.10;99.90
14471;DHT22;7321;50.802;4.336;2024-03-29T15:49:54;16.00;99.90
14471;DHT22;7321;50.802;4.336;2024-03-29T15:52:26;16.20;99.90
14471;DHT22;7321;50.802;4.336;2024-03-29T15:54:52;16.50;99.90
14471;DHT22;7321;50.802;4.336;2024-03-29T15:57:23;16.80;99.90
14471;DHT22;7321;50.802;4.336;2024-03-29T15:59:49;16.80;99.90
14471;DHT22;7321;50.802;4.336;2024-03-29T16:02:15;16.80;99.90
14471;DHT22;7321;50.802;4.336;2024-03-29T16:04:41;16.90;99.90
14471;DHT22;7321;50.802;4.336;2024-03-29T16:07:06;16.80;99.90
14471;DHT22;7321;50.802;4.336;2024-03-29T16:09:36;16.70;99.90
14471;DHT22;7321;50.802;4.336;2024-03-29T16:12:02;16.80;99.90
14471;DHT22;7321;50.802;4.336;2024-03-29T16:14:28;17.00;99.90
14471;DHT22;7321;50.802;4.336;2024-03-29T16:16:56;16.80;99.90
14471;DHT22;7321;50.802;4.336;2024-03-29T16:19:25;16.90;99.90
14471;DHT22;7321;50.802;4.336;2024-03-29T16:22:00;16.80;99.90
14471;DHT22;7321;50.802;4.336;2024-03-29T16:24:29;16.60;99.90
14471;DHT22;7321;50.802;4.336;2024-03-29T16:26:55;16.70;99.90
14471;DHT22;7321;50.802;4.336;2024-03-29T16:29:21;16.80;99.90
14471;DHT22;7321;50.802;4.336;2024-03-29T16:31:50;17.10;99.90